Time;durP1;ratioP1;P1;durP2;ratioP2;P2;SDS_P1;SDS_P2;PMS_P1;PMS_P2;Temp;Humidity;BMP_temperature;BMP_pressure;BME280_temperature;BME280_humidity;BME280_pressure;Samples;Min_cycle;Max_cycle;Signal;HPM_P1;HPM_P2
2023/03/15 00:00:48;;;;;;;6.90;2.90;;;;;;;-143.84;83.01;45123.34;5111804;28;20443;-76
2023/03/15 00:03:15;;;;;;;3.03;2.50;;;;;;;-143.84;83.39;45089.06;5110146;28;20512;-77
2023/03/15 00:05:43;;;;;;;3.70;2.17;;;;;;;-143.84;82.95;45134.75;5110526;28;20435;-76
2023/03/15 00:08:11;;;;;;;4.20;2.70;;;;;;;-143.84;83.66;45106.19;5111890;28;20442;-76
2023/03/15 00:10:40;;;;;;;7.93;2.87;;;;;;;-143.84;83.43;45111.91;5111240;28;21027;-77
2023/03/15 00:13:07;;;;;;;8.07;2.20;;;;;;;-143.84;83.50;45100.47;5111587;28;20435;-77
2023/03/15 00:15:36;;;;;;;6.30;2.70;;;;;;;-143.84;83.38;45127.13;5111395;28;20427;-77
2023/03/15 00:18:04;;;;;;;7.07;2.50;;;;;;;-143.84;84.08;45081.44;5112058;28;20420;-77
2023/03/15 00:20:31;;;;;;;5.17;3.07;;;;;;;-143.84;84.21;45098.56;5111871;28;20435;-77
2023/03/15 00:22:58;;;;;;;6.67;2.40;;;;;;;-143.84;84.46;45052.88;5111758;28;20451;-77
2023/03/15 00:25:25;;;;;;;9.30;3.30;;;;;;;-143.84;84.77;45052.88;5111573;28;20427;-77
2023/03/15 00:27:53;;;;;;;14.10;3.13;;;;;;;-143.84;85.11;45070.00;5109928;28;20435;-77
2023/03/15 00:30:20;;;;;;;5.40;2.67;;;;;;;-143.84;85.17;45039.53;5110722;28;20934;-77
2023/03/15 00:32:48;;;;;;;11.43;3.57;;;;;;;-143.84;85.20;45012.88;5111683;28;20431;-77
2023/03/15 00:35:17;;;;;;;5.57;3.30;;;;;;;-143.84;84.94;45035.75;5111448;28;20439;-77
2023/03/15 00:37:44;;;;;;;7.23;3.00;;;;;;;-143.84;85.05;45035.75;5111423;28;20470;-77
2023/03/15 00:40:12;;;;;;;6.80;3.07;;;;;;;-143.84;85.68;45009.09;5111127;28;20496;-77
2023/03/15 00:42:40;;;;;;;10.13;4.00;;;;;;;-143.84;85.61;44980.53;5111491;28;20496;-76
2023/03/15 00:45:09;;;;;;;3.03;2.73;;;;;;;-143.84;86.33;45007.19;5110928;28;20492;-76
2023/03/15 00:47:36;;;;;;;3.53;2.80;;;;;;;-143.84;85.48;44993.84;5111178;28;20468;-75
2023/03/15 00:50:05;;;;;;;2.97;2.70;;;;;;;-143.84;85.28;45047.16;5110149;28;20887;-75
2023/03/15 00:52:35;;;;;;;4.63;2.30;;;;;;;-143.84;83.86;45079.53;5109877;28;20504;-76
2023/03/15 00:55:04;;;;;;;9.03;2.97;;;;;;;-143.84;84.63;45056.69;5111360;28;20458;-77
2023/03/15 00:57:33;;;;;;;4.80;2.60;;;;;;;-143.84;84.85;45037.66;5111610;28;20500;-77
2023/03/15 01:00:04;;;;;;;6.63;2.33;;;;;;;-143.84;85.08;45018.59;5092902;28;20451;-78
2023/03/15 01:02:31;;;;;;;6.80;2.70;;;;;;;-143.84;84.52;45047.16;5111210;28;20435;-78
2023/03/15 01:04:58;;;;;;;3.20;2.50;;;;;;;-143.84;84.07;45079.53;5111269;28;20435;-78
2023/03/15 01:07:26;;;;;;;15.00;2.70;;;;;;;-143.84;84.32;45085.25;5110933;28;20484;-78
2023/03/15 01:09:54;;;;;;;4.23;3.40;;;;;;;-143.84;85.17;45037.66;5111089;28;20434;-78
2023/03/15 01:12:21;;;;;;;4.73;2.93;;;;;;;-143.84;85.05;45007.19;5110383;28;20524;-78
2023/03/15 01:14:48;;;;;;;7.80;3.10;;;;;;;-143.84;84.75;45054.78;5109956;28;20431;-78
2023/03/15 01:17:15;;;;;;;8.60;3.00;;;;;;;-143.84;84.50;45064.31;5110989;28;20913;-78
2023/03/15 01:19:42;;;;;;;3.20;2.90;;;;;;;-143.84;84.96;45070.00;5110967;28;20435;-79
2023/03/15 01:22:09;;;;;;;8.53;2.80;;;;;;;-143.84;84.69;45092.88;5111128;28;20435;-78
2023/03/15 01:24:38;;;;;;;8.43;3.43;;;;;;;-143.84;84.54;45054.78;5114874;28;20435;-78
2023/03/15 01:27:05;;;;;;;3.00;2.40;;;;;;;-143.84;85.07;45060.50;5114789;28;20949;-78
2023/03/15 01:29:32;;;;;;;10.10;4.27;;;;;;;-143.84;85.07;45049.06;5114298;28;20863;-78
2023/03/15 01:31:59;;;;;;;10.17;3.80;;;;;;;-143.84;85.07;45005.28;5114914;28;20547;-78
2023/03/15 01:34:26;;;;;;;15.23;2.50;;;;;;;-143.84;84.80;45028.13;5114657;28;20438;-78
2023/03/15 01:36:53;;;;;;;4.40;3.00;;;;;;;-143.84;84.74;45083.34;5113884;28;20547;-78
2023/03/15 01:39:21;;;;;;;4.80;3.03;;;;;;;-143.84;85.07;45060.50;5113305;28;20439;-78
2023/03/15 01:41:50;;;;;;;8.10;2.83;;;;;;;-143.84;84.37;45052.88;5114030;28;20439;-78
2023/03/15 01:44:19;;;;;;;2.87;2.20;;;;;;;-143.84;84.64;45049.06;5114777;28;20503;-78
2023/03/15 01:46:46;;;;;;;4.87;3.00;;;;;;;-143.84;85.04;45050.97;5114539;28;20439;-78
2023/03/15 01:49:17;;;;;;;4.90;3.43;;;;;;;-143.84;84.83;45043.34;5114074;28;20465;-78
2023/03/15 01:51:49;;;;;;;11.70;2.80;;;;;;;-143.84;85.37;45028.13;5114314;28;20466;-78
2023/03/15 01:54:21;;;;;;;5.97;3.17;;;;;;;-143.84;85.00;45060.50;5114214;28;20888;-78
2023/03/15 01:56:55;;;;;;;3.47;2.60;;;;;;;-143.84;84.98;45031.94;5114370;28;20480;-78
2023/03/15 01:59:29;;;;;;;8.53;3.27;;;;;;;-143.84;85.17;45071.91;5114500;28;20528;-78
2023/03/15 02:01:57;;;;;;;6.07;3.00;;;;;;;-143.84;84.51;45070.00;5112131;28;20482;-79
2023/03/15 02:04:28;;;;;;;5.20;2.73;;;;;;;-143.84;84.79;45075.72;5113774;28;20512;-78
2023/03/15 02:06:59;;;;;;;3.13;2.63;;;;;;;-143.84;84.45;45070.00;5113826;28;20435;-78
2023/03/15 02:09:30;;;;;;;6.13;3.27;;;;;;;-143.84;84.40;45062.41;5114102;28;20427;-78
2023/03/15 02:11:59;;;;;;;3.97;3.30;;;;;;;-143.84;84.90;45037.66;5094462;28;20464;-78
2023/03/15 02:14:28;;;;;;;9.13;3.50;;;;;;;-143.84;85.29;45066.22;5093233;28;20440;-78
2023/03/15 02:16:55;;;;;;;6.90;3.37;;;;;;;-143.84;84.57;45041.44;5093729;28;20423;-79
2023/03/15 02:19:36;;;;;;;10.43;2.70;;;;;;;-143.84;84.66;45054.78;5092852;28;20444;-78
2023/03/15 02:22:17;;;;;;;3.70;3.00;;;;;;;-143.84;84.24;45066.22;5093889;28;20505;-79
2023/03/15 02:24:52;;;;;;;7.83;4.67;;;;;;;-143.84;84.72;45035.75;5092842;28;20861;-79
2023/03/15 02:27:28;;;;;;;13.10;6.17;;;;;;;-143.84;84.83;45071.91;5091502;28;20444;-79
2023/03/15 02:29:56;;;;;;;8.30;4.67;;;;;;;-143.84;84.89;45020.50;5093093;28;20443;-79
2023/03/15 02:32:23;;;;;;;6.03;4.23;;;;;;;-143.84;85.08;45052.88;5092854;28;20468;-79
2023/03/15 02:34:50;;;;;;;9.87;4.40;;;;;;;-143.84;84.32;45056.69;5091837;28;20439;-79
2023/03/15 02:37:17;;;;;;;9.40;3.70;;;;;;;-143.84;84.46;45090.97;5098949;28;20520;-79
2023/03/15 02:39:44;;;;;;;4.40;2.80;;;;;;;-143.84;84.00;45087.16;5113135;28;20500;-78
2023/03/15 02:42:11;;;;;;;7.83;4.73;;;;;;;-143.84;83.98;45085.25;5113235;28;20493;-79
2023/03/15 02:44:43;;;;;;;3.50;3.20;;;;;;;-143.84;83.73;45106.19;5113480;28;20916;-79
2023/03/15 02:47:13;;;;;;;9.07;3.10;;;;;;;-143.84;84.03;45068.13;5113426;28;20427;-79
2023/03/15 02:49:43;;;;;;;5.70;2.73;;;;;;;-143.84;84.15;45087.16;5103669;28;20496;-79
2023/03/15 02:52:12;;;;;;;8.37;3.43;;;;;;;-143.84;84.05;45110.00;5112690;28;21247;-79
2023/03/15 02:54:42;;;;;;;17.30;3.03;;;;;;;-143.84;84.12;45073.81;5133348;27;20494;-78
2023/03/15 02:57:09;;;;;;;7.70;3.70;;;;;;;-143.84;84.21;45087.16;5133325;27;20438;-78
2023/03/15 02:59:37;;;;;;;5.33;3.23;;;;;;;-143.84;84.66;45052.88;5133468;27;20540;-78
2023/03/15 03:02:06;;;;;;;7.20;3.50;;;;;;;-143.84;84.40;45056.69;5133656;27;20470;-79
2023/03/15 03:04:33;;;;;;;6.90;3.20;;;;;;;-143.84;84.13;45049.06;5133333;27;20830;-78
2023/03/15 03:07:01;;;;;;;7.27;3.20;;;;;;;-143.84;84.46;45066.22;5133308;27;20454;-79
2023/03/15 03:09:28;;;;;;;17.43;3.23;;;;;;;-143.84;84.56;45026.22;5133315;27;20422;-79
2023/03/15 03:11:55;;;;;;;3.83;3.17;;;;;;;-143.84;84.59;45079.53;5132142;27;20478;-79
2023/03/15 03:14:23;;;;;;;3.87;2.73;;;;;;;-143.84;84.32;45064.31;5131310;27;20434;-78
2023/03/15 03:16:51;;;;;;;3.07;2.30;;;;;;;-143.84;83.76;45102.38;5130219;27;20438;-78
2023/03/15 03:19:24;;;;;;;8.33;3.00;;;;;;;-143.84;84.02;45092.88;5130565;27;20507;-78
2023/03/15 03:21:52;;;;;;;13.37;2.87;;;;;;;-143.84;83.61;45052.88;5132274;27;20532;-78
2023/03/15 03:24:19;;;;;;;5.27;3.27;;;;;;;-143.84;83.83;45081.44;5114721;27;20512;-79
2023/03/15 03:26:47;;;;;;;4.50;2.87;;;;;;;-143.84;83.93;45049.06;5132609;27;20466;-78
2023/03/15 03:29:15;;;;;;;7.50;3.47;;;;;;;-143.84;84.23;45064.31;5133481;27;20834;-78
2023/03/15 03:31:43;;;;;;;7.53;3.73;;;;;;;-143.84;84.63;45058.59;5132496;27;20870;-79
2023/03/15 03:34:14;;;;;;;5.47;2.77;;;;;;;-143.84;84.20;45075.72;5132820;27;20423;-78
2023/03/15 03:36:43;;;;;;;5.20;3.80;;;;;;;-143.84;84.15;45098.56;5130829;27;20462;-79
2023/03/15 03:39:10;;;;;;;5.47;2.43;;;;;;;-143.84;83.93;45071.91;5132058;27;20924;-79
2023/03/15 03:41:38;;;;;;;4.93;2.53;;;;;;;-143.84;83.43;45092.88;5133128;27;20491;-79
2023/03/15 03:44:05;;;;;;;5.60;2.90;;;;;;;-143.84;83.24;45115.72;5132351;27;20438;-78
2023/03/15 03:46:32;;;;;;;14.63;3.73;;;;;;;-143.84;83.95;45106.19;5132379;27;20434;-78
2023/03/15 03:48:59;;;;;;;6.03;3.83;;;;;;;-143.84;84.20;45049.06;5132782;27;20517;-78
2023/03/15 03:51:26;;;;;;;6.53;4.40;;;;;;;-143.84;85.01;45060.50;5132543;27;20434;-78
2023/03/15 03:53:55;;;;;;;7.47;4.50;;;;;;;-143.84;84.57;45030.03;5132562;27;20487;-78
2023/03/15 03:56:22;;;;;;;10.23;3.03;;;;;;;-143.84;83.80;45094.78;5132253;27;20847;-78
2023/03/15 03:58:49;;;;;;;3.57;3.27;;;;;;;-143.84;83.72;45092.88;5132070;27;20981;-78
2023/03/15 04:01:17;;;;;;;7.57;3.47;;;;;;;-143.84;84.70;45066.22;5130875;27;20957;-78
2023/03/15 04:03:44;;;;;;;11.03;3.90;;;;;;;-143.84;84.68;45056.69;5131698;27;20815;-78
2023/03/15 04:06:11;;;;;;;5.73;3.43;;;;;;;-143.84;84.66;45058.59;5131962;27;20422;-78
2023/03/15 04:08:39;;;;;;;8.87;2.53;;;;;;;-143.84;83.68;45079.53;5132087;27;20438;-78
2023/03/15 04:11:08;;;;;;;7.27;2.50;;;;;;;-143.84;83.58;45094.78;5132263;27;20463;-78
2023/03/15 04:13:35;;;;;;;3.87;2.40;;;;;;;-143.84;84.20;45075.72;5132441;27;20474;-78
2023/03/15 04:16:02;;;;;;;7.33;2.97;;;;;;;-143.84;84.60;45064.31;5131717;27;20853;-78
2023/03/15 04:18:30;;;;;;;6.70;3.00;;;;;;;-143.84;85.29;45062.41;5132152;27;20429;-78
2023/03/15 04:20:57;;;;;;;8.97;2.37;;;;;;;-143.84;84.92;45064.31;5132247;27;20427;-78
2023/03/15 04:23:24;;;;;;;9.00;2.63;;;;;;;-143.84;84.04;45102.38;5131085;27;20457;-77
2023/03/15 04:25:53;;;;;;;6.63;3.30;;;;;;;-143.84;83.72;45129.03;5130757;28;20442;-75
2023/03/15 04:28:22;;;;;;;4.50;2.87;;;;;;;-143.84;83.30;45075.72;5131886;28;20442;-78
2023/03/15 04:30:51;;;;;;;6.77;3.30;;;;;;;-143.84;83.30;45064.31;5131814;28;20434;-78
2023/03/15 04:33:18;;;;;;;11.53;5.20;;;;;;;-143.84;84.71;45068.13;5131359;28;20994;-76
2023/03/15 04:35:45;;;;;;;3.27;2.47;;;;;;;-143.84;84.84;45068.13;5131413;28;20467;-77
2023/03/15 04:38:12;;;;;;;9.23;3.37;;;;;;;-143.84;84.48;45022.41;5131544;28;20478;-77
2023/03/15 04:40:41;;;;;;;5.90;3.47;;;;;;;-143.84;84.17;45068.13;5131519;28;20445;-76
2023/03/15 04:43:09;;;;;;;10.03;4.77;;;;;;;-143.84;84.60;45083.34;5131498;28;20442;-77
2023/03/15 04:45:38;;;;;;;7.37;5.23;;;;;;;-143.84;84.01;45049.06;5131273;28;20450;-78
2023/03/15 04:48:05;;;;;;;9.23;3.70;;;;;;;-143.84;84.69;45020.50;5130420;28;20446;-77
2023/03/15 04:50:32;;;;;;;10.83;3.07;;;;;;;-143.84;84.38;45058.59;5131444;28;20932;-77
2023/03/15 04:53:00;;;;;;;5.77;2.63;;;;;;;-143.84;85.06;45022.41;5132238;28;20462;-79
2023/03/15 04:55:27;;;;;;;15.03;2.83;;;;;;;-143.84;85.61;45018.59;5131800;28;20541;-75
2023/03/15 04:57:55;;;;;;;5.90;2.93;;;;;;;-143.84;85.37;45071.91;5132202;27;20437;-75
2023/03/15 05:00:23;;;;;;;12.77;3.70;;;;;;;-143.84;83.85;45075.72;5135870;27;20488;-75
2023/03/15 05:02:53;;;;;;;8.23;3.17;;;;;;;-143.84;83.85;45106.19;5135551;27;20438;-75
2023/03/15 05:05:22;;;;;;;6.63;4.00;;;;;;;-143.84;83.60;45085.25;5135062;27;20456;-75
2023/03/15 05:07:49;;;;;;;8.03;2.70;;;;;;;-143.84;84.38;45064.31;5135396;27;20423;-75
2023/03/15 05:10:17;;;;;;;5.13;3.37;;;;;;;-143.84;84.54;45077.63;5134809;27;20519;-75
2023/03/15 05:12:44;;;;;;;7.73;3.30;;;;;;;-143.84;84.26;45129.03;5133814;27;20482;-75
2023/03/15 05:15:12;;;;;;;17.83;3.27;;;;;;;-143.84;82.97;45111.91;5134458;27;20456;-75
2023/03/15 05:17:39;;;;;;;7.93;2.30;;;;;;;-143.84;83.96;45064.31;5135089;27;20442;-75
2023/03/15 05:20:10;;;;;;;12.70;3.27;;;;;;;-143.84;84.83;45094.78;5135069;27;20430;-75
2023/03/15 05:22:38;;;;;;;9.37;3.20;;;;;;;-143.84;84.84;45050.97;5135027;27;20948;-75
2023/03/15 05:25:06;;;;;;;9.53;2.80;;;;;;;-143.84;84.73;45045.25;5134812;27;20876;-75
2023/03/15 05:27:33;;;;;;;7.30;2.70;;;;;;;-143.84;85.37;45009.09;5134629;27;20494;-75
2023/03/15 05:30:03;;;;;;;5.30;3.53;;;;;;;-143.84;85.34;45030.03;5135081;27;20430;-75
2023/03/15 05:32:33;;;;;;;3.97;2.33;;;;;;;-143.84;84.62;45085.25;5134724;27;20847;-75
2023/03/15 05:35:01;;;;;;;12.60;3.30;;;;;;;-143.84;84.80;45052.88;5133369;27;20478;-75
2023/03/15 05:37:31;;;;;;;6.47;3.57;;;;;;;-143.84;84.09;45070.00;5133469;27;20528;-75
2023/03/15 05:39:59;;;;;;;7.33;3.63;;;;;;;-143.84;84.53;45077.63;5134127;27;20450;-75
2023/03/15 05:42:26;;;;;;;5.33;2.67;;;;;;;-143.84;84.17;45089.06;5134588;27;20512;-77
2023/03/15 05:44:54;;;;;;;12.90;3.37;;;;;;;-143.84;84.68;45035.75;5134642;27;20449;-77
2023/03/15 05:47:21;;;;;;;9.27;4.13;;;;;;;-143.84;85.33;45041.44;5134457;27;20760;-77
2023/03/15 05:49:49;;;;;;;3.77;2.60;;;;;;;-143.84;84.22;45077.63;5134947;27;20442;-77
2023/03/15 05:52:16;;;;;;;7.90;3.17;;;;;;;-143.84;83.59;45096.66;5134221;27;20526;-77
2023/03/15 05:54:45;;;;;;;8.33;3.60;;;;;;;-143.84;83.44;45096.66;5134680;27;20426;-77
2023/03/15 05:57:12;;;;;;;10.10;2.80;;;;;;;-143.84;83.31;45085.25;5134193;27;21024;-77
2023/03/15 05:59:39;;;;;;;13.67;2.53;;;;;;;-143.84;82.70;45119.53;5132462;27;20871;-77
2023/03/15 06:02:07;;;;;;;5.07;2.70;;;;;;;-143.84;83.58;45085.25;5134108;27;20491;-77
2023/03/15 06:04:35;;;;;;;8.20;3.10;;;;;;;-143.84;81.58;45113.81;5134332;27;20441;-77
2023/03/15 06:07:02;;;;;;;12.10;3.67;;;;;;;-143.84;81.81;45108.09;5134458;27;20491;-77
2023/03/15 06:09:29;;;;;;;6.40;2.47;;;;;;;-143.84;81.26;45100.47;5134449;27;20516;-77
2023/03/15 06:11:58;;;;;;;10.60;2.83;;;;;;;-143.84;80.53;45134.75;5133884;27;20997;-77
2023/03/15 06:14:26;;;;;;;8.67;2.30;;;;;;;-143.84;78.60;45165.22;5134226;27;20435;-77
2023/03/15 06:16:54;;;;;;;7.40;2.87;;;;;;;-143.84;78.86;45132.84;5134438;27;20464;-77
2023/03/15 06:19:21;;;;;;;9.33;3.30;;;;;;;-143.84;78.04;45157.59;5133954;27;20432;-77
2023/03/15 06:21:48;;;;;;;5.70;2.40;;;;;;;-143.84;78.05;45138.56;5134249;27;20436;-77
2023/03/15 06:24:16;;;;;;;4.27;2.27;;;;;;;-143.84;78.47;45159.50;5132224;27;20924;-76
2023/03/15 06:26:43;;;;;;;12.10;4.33;;;;;;;-143.84;78.17;45155.69;5133988;27;20444;-77
2023/03/15 06:29:12;;;;;;;4.40;2.50;;;;;;;-143.84;75.24;45165.22;5133993;27;20435;-77
2023/03/15 06:31:39;;;;;;;5.50;2.60;;;;;;;-143.84;74.15;45157.59;5133465;27;20997;-77
2023/03/15 06:34:06;;;;;;;12.20;2.80;;;;;;;-143.84;74.23;45138.56;5133804;27;20527;-77
2023/03/15 06:36:33;;;;;;;6.53;2.47;;;;;;;-143.84;73.59;45153.81;5133590;27;20488;-77
2023/03/15 06:39:01;;;;;;;4.17;2.73;;;;;;;-143.84;73.19;45165.22;5092903;28;20496;-77
2023/03/15 06:41:28;;;;;;;4.80;2.63;;;;;;;-143.84;71.68;45146.19;5092805;28;20446;-77
2023/03/15 06:43:56;;;;;;;5.47;2.37;;;;;;;-143.84;71.44;45144.28;5092748;28;20443;-76
2023/03/15 06:46:24;;;;;;;7.27;2.77;;;;;;;-143.84;71.14;45148.09;5092102;28;20437;-76
2023/03/15 06:48:51;;;;;;;10.90;2.70;;;;;;;-143.84;72.18;45170.94;5090739;28;20448;-76
2023/03/15 06:51:19;;;;;;;3.40;2.43;;;;;;;-143.84;71.91;45132.84;5091474;28;20524;-75
2023/03/15 06:53:46;;;;;;;11.10;2.60;;;;;;;-143.84;72.39;45140.47;5091800;28;20988;-75
2023/03/15 06:56:13;;;;;;;14.63;3.20;;;;;;;-143.84;73.53;45148.09;5092065;28;20904;-75
2023/03/15 06:58:41;;;;;;;5.63;2.90;;;;;;;-143.84;73.73;45125.22;5092232;28;20569;-76
2023/03/15 07:01:08;;;;;;;10.17;3.13;;;;;;;-143.84;74.35;45174.75;5091872;28;20447;-75
2023/03/15 07:03:37;;;;;;;7.83;3.23;;;;;;;-143.84;75.33;45144.28;5091635;28;20456;-76
2023/03/15 07:06:04;;;;;;;9.23;2.93;;;;;;;-143.84;75.70;45172.84;5092289;28;20831;-76
2023/03/15 07:08:32;;;;;;;11.90;3.37;;;;;;;-143.84;75.80;45150.00;5092393;28;20483;-76
2023/03/15 07:10:59;;;;;;;7.07;3.00;;;;;;;-143.84;75.52;45153.81;5091899;28;20794;-75
2023/03/15 07:13:26;;;;;;;9.80;3.17;;;;;;;-143.84;76.89;45129.03;5090038;28;20514;-76
2023/03/15 07:15:55;;;;;;;15.40;3.43;;;;;;;-143.84;76.16;45153.81;5091654;28;20444;-77
2023/03/15 07:18:23;;;;;;;5.30;2.67;;;;;;;-143.84;76.04;45170.94;5091953;28;20441;-77
2023/03/15 07:20:57;;;;;;;9.60;3.20;;;;;;;-143.84;75.81;45157.59;5091148;28;20436;-77
2023/03/15 07:23:25;;;;;;;3.63;3.33;;;;;;;-143.84;76.49;45140.47;5092309;28;20433;-77
2023/03/15 07:25:53;;;;;;;9.10;3.33;;;;;;;-143.84;76.58;45129.03;5091294;28;21023;-77
2023/03/15 07:28:20;;;;;;;5.47;2.60;;;;;;;-143.84;76.28;45115.72;5090244;28;20502;-77
2023/03/15 07:30:55;;;;;;;12.77;3.57;;;;;;;-143.84;76.34;45153.81;5091201;28;20444;-78
2023/03/15 07:33:23;;;;;;;5.73;3.33;;;;;;;-143.84;76.11;45130.94;5091632;28;20477;-78
2023/03/15 07:35:52;;;;;;;7.20;2.90;;;;;;;-143.84;75.50;45136.66;5090314;28;20948;-75
2023/03/15 07:38:23;;;;;;;6.53;3.00;;;;;;;-143.84;75.78;45142.38;5118564;27;20490;-75
2023/03/15 07:40:50;;;;;;;6.00;3.57;;;;;;;-143.84;75.40;45146.19;5130183;27;20440;-75
2023/03/15 07:43:18;;;;;;;11.70;3.47;;;;;;;-143.84;75.79;45144.28;5131499;27;20431;-75
2023/03/15 07:45:45;;;;;;;13.63;3.20;;;;;;;-143.84;76.09;45165.22;5130628;27;20476;-75
2023/03/15 07:48:12;;;;;;;9.73;2.90;;;;;;;-143.84;76.22;45151.91;5131475;27;20448;-75
2023/03/15 07:50:40;;;;;;;6.70;3.10;;;;;;;-143.84;76.24;45129.03;5131309;27;20448;-75
2023/03/15 07:53:07;;;;;;;6.70;3.00;;;;;;;-143.84;75.61;45150.00;5130449;27;20482;-75
2023/03/15 07:55:36;;;;;;;12.73;5.87;;;;;;;-143.84;75.87;45142.38;5131298;27;20605;-75
2023/03/15 07:58:04;;;;;;;10.80;5.77;;;;;;;-143.84;77.04;45150.00;5131557;27;20515;-75
2023/03/15 08:00:32;;;;;;;14.27;3.43;;;;;;;-143.84;77.35;45130.94;5131665;27;20451;-75
2023/03/15 08:02:59;;;;;;;16.30;4.27;;;;;;;-143.84;76.15;45151.91;5131397;27;20996;-75
2023/03/15 08:05:27;;;;;;;17.53;3.63;;;;;;;-143.84;76.90;45163.31;5131279;27;20447;-75
2023/03/15 08:07:55;;;;;;;8.17;3.47;;;;;;;-143.84;76.19;45125.22;5131415;27;20446;-75
2023/03/15 08:10:22;;;;;;;14.53;4.50;;;;;;;-143.84;76.43;45129.03;5131405;27;20439;-75
2023/03/15 08:12:51;;;;;;;24.70;3.90;;;;;;;-143.84;75.77;45161.41;5131282;27;20445;-75
2023/03/15 08:15:19;;;;;;;6.83;3.83;;;;;;;-143.84;76.20;45142.38;5130461;27;20443;-75
2023/03/15 08:17:48;;;;;;;11.97;4.97;;;;;;;-143.84;77.10;45151.91;5130109;27;20442;-75
2023/03/15 08:20:17;;;;;;;8.60;4.53;;;;;;;-143.84;77.16;45148.09;5130800;27;20980;-75
2023/03/15 08:22:44;;;;;;;15.00;7.00;;;;;;;-143.84;77.57;45115.72;5131316;27;20457;-75
2023/03/15 08:25:14;;;;;;;10.73;4.17;;;;;;;-143.84;78.29;45144.28;5130996;27;20426;-75
2023/03/15 08:27:42;;;;;;;8.43;3.60;;;;;;;-143.84;77.60;45138.56;5130692;28;20434;-75
2023/03/15 08:30:13;;;;;;;19.23;5.90;;;;;;;-143.84;75.95;45142.38;5131098;28;20433;-75
2023/03/15 08:32:40;;;;;;;10.87;4.97;;;;;;;-143.84;76.46;45140.47;5131550;27;20442;-75
2023/03/15 08:35:08;;;;;;;8.33;4.17;;;;;;;-143.84;74.71;45136.66;5135844;27;20434;-75
2023/03/15 08:37:35;;;;;;;12.90;5.57;;;;;;;-143.84;75.07;45136.66;5135012;27;20515;-75
2023/03/15 08:40:08;;;;;;;6.13;3.83;;;;;;;-143.84;75.05;45150.00;5134438;27;20878;-75
2023/03/15 08:42:36;;;;;;;12.60;5.17;;;;;;;-143.84;74.21;45144.28;5134104;27;20531;-75
2023/03/15 08:45:05;;;;;;;8.77;5.20;;;;;;;-143.84;73.09;45159.50;5134986;27;21020;-75
2023/03/15 08:47:35;;;;;;;10.80;4.80;;;;;;;-143.84;73.30;45138.56;5135022;27;20449;-75
2023/03/15 08:50:04;;;;;;;10.50;5.37;;;;;;;-143.84;72.75;45136.66;5134724;27;20540;-75
2023/03/15 08:52:32;;;;;;;12.63;4.50;;;;;;;-143.84;72.39;45148.09;5134879;27;20979;-75
2023/03/15 08:54:59;;;;;;;5.30;4.80;;;;;;;-143.84;73.62;45151.91;5134677;27;20509;-75
2023/03/15 08:57:27;;;;;;;12.23;6.27;;;;;;;-143.84;72.88;45125.22;5134454;27;20821;-75
2023/03/15 08:59:55;;;;;;;16.10;7.70;;;;;;;-143.84;73.21;45189.97;5134967;27;20484;-75
2023/03/15 09:02:22;;;;;;;7.90;4.57;;;;;;;-143.84;72.48;45144.28;5134910;27;20471;-75
2023/03/15 09:04:51;;;;;;;15.53;5.03;;;;;;;-143.84;72.50;45144.28;5134306;27;21264;-75
2023/03/15 09:07:18;;;;;;;9.33;4.90;;;;;;;-143.84;71.17;45148.09;5134139;27;20424;-75
2023/03/15 09:09:46;;;;;;;10.53;5.10;;;;;;;-143.84;72.13;45140.47;5134396;27;20434;-75
2023/03/15 09:12:15;;;;;;;7.63;4.87;;;;;;;-143.84;73.22;45130.94;5134609;27;20448;-75
2023/03/15 09:14:42;;;;;;;8.07;5.70;;;;;;;-143.84;72.34;45138.56;5134049;27;21047;-75
2023/03/15 09:17:10;;;;;;;9.50;6.50;;;;;;;-143.84;72.19;45144.28;5134202;27;20946;-75
2023/03/15 09:19:37;;;;;;;19.10;6.37;;;;;;;-143.84;72.12;45150.00;5134179;27;20501;-75
2023/03/15 09:22:06;;;;;;;9.10;5.80;;;;;;;-143.84;72.11;45151.91;5134456;27;20429;-75
2023/03/15 09:24:33;;;;;;;14.00;8.93;;;;;;;-143.84;73.50;45130.94;5134015;27;20478;-75
2023/03/15 09:27:00;;;;;;;16.77;9.07;;;;;;;-143.84;74.36;45172.84;5134053;27;20441;-75
2023/03/15 09:29:27;;;;;;;16.67;6.97;;;;;;;-143.84;73.74;45142.38;5133529;27;20505;-75
2023/03/15 09:31:55;;;;;;;12.07;7.60;;;;;;;-143.84;74.43;45155.69;5133334;27;21123;-75
2023/03/15 09:34:22;;;;;;;13.27;7.50;;;;;;;-143.84;72.85;45127.13;5133721;27;21325;-75
2023/03/15 09:36:51;;;;;;;10.20;7.73;;;;;;;-143.84;72.36;45151.91;5134167;27;20445;-75
2023/03/15 09:39:22;;;;;;;14.93;9.07;;;;;;;-143.84;74.01;45138.56;5134273;27;20440;-75
2023/03/15 09:41:52;;;;;;;19.10;9.03;;;;;;;-143.84;74.16;45159.50;5133799;27;20491;-75
2023/03/15 09:44:36;;;;;;;17.27;9.30;;;;;;;-143.84;74.59;45136.66;5133388;27;20444;-75
2023/03/15 09:47:13;;;;;;;28.63;10.27;;;;;;;-143.84;74.77;45144.28;5134086;27;20926;-75
2023/03/15 09:49:46;;;;;;;19.57;9.60;;;;;;;-143.84;74.85;45134.75;5133522;27;20440;-75
2023/03/15 09:52:26;;;;;;;19.37;9.50;;;;;;;-143.84;74.87;45127.13;5133532;27;21308;-75
2023/03/15 09:55:00;;;;;;;9.30;8.30;;;;;;;-143.84;75.16;45136.66;5132486;27;20480;-75
2023/03/15 09:57:37;;;;;;;31.17;11.70;;;;;;;-143.84;74.98;45159.50;5133352;27;20828;-75
2023/03/15 10:00:10;;;;;;;17.70;11.03;;;;;;;-143.84;75.24;45136.66;5133922;27;20456;-75
2023/03/15 10:02:43;;;;;;;16.23;10.83;;;;;;;-143.84;74.33;45144.28;5133930;27;20463;-75
2023/03/15 10:05:17;;;;;;;21.23;11.77;;;;;;;-143.84;73.74;45195.69;5133626;27;20442;-75
2023/03/15 10:07:45;;;;;;;26.00;13.40;;;;;;;-143.84;74.48;45130.94;5133261;27;20441;-75
2023/03/15 10:10:19;;;;;;;15.33;10.77;;;;;;;-143.84;74.98;45138.56;5133239;27;20518;-75
2023/03/15 10:12:54;;;;;;;20.77;13.33;;;;;;;-143.84;77.06;45115.72;5133240;27;20449;-75
2023/03/15 10:15:32;;;;;;;38.23;13.10;;;;;;;-143.84;78.10;45121.44;5133137;27;20877;-75
2023/03/15 10:18:19;;;;;;;15.73;11.20;;;;;;;-143.84;77.35;45119.53;5133285;27;20456;-75
2023/03/15 10:20:55;;;;;;;18.73;12.77;;;;;;;-143.84;77.91;45123.34;5132057;27;20445;-75
2023/03/15 10:23:33;;;;;;;19.73;11.83;;;;;;;-143.84;77.97;45146.19;5132441;27;20455;-75
2023/03/15 10:26:07;;;;;;;18.80;11.97;;;;;;;-143.84;78.77;45102.38;5133400;27;20429;-75
2023/03/15 10:28:36;;;;;;;31.43;14.23;;;;;;;-143.84;79.42;45104.28;5132892;27;20444;-75
2023/03/15 10:31:13;;;;;;;18.03;12.50;;;;;;;-143.84;78.00;45115.72;5133605;27;20513;-77
2023/03/15 10:33:41;;;;;;;13.37;11.27;;;;;;;-143.84;77.27;45127.13;5133457;27;20473;-77
2023/03/15 10:36:16;;;;;;;17.10;12.60;;;;;;;-143.84;77.71;45113.81;5133667;27;21321;-78
2023/03/15 10:38:44;;;;;;;29.40;14.30;;;;;;;-143.84;78.37;45125.22;5133432;27;20529;-77
2023/03/15 10:41:14;;;;;;;16.93;13.10;;;;;;;-143.84;78.45;45117.63;5133198;27;20979;-77
2023/03/15 10:43:41;;;;;;;33.60;15.80;;;;;;;-143.84;79.13;45138.56;5132691;27;20879;-77
2023/03/15 10:46:10;;;;;;;26.23;14.47;;;;;;;-143.84;78.34;45119.53;5132420;27;20435;-77
2023/03/15 10:48:39;;;;;;;19.17;11.60;;;;;;;-143.84;78.31;45119.53;5133182;27;20447;-77
2023/03/15 10:51:14;;;;;;;24.70;12.00;;;;;;;-143.84;78.64;45136.66;5133246;27;20445;-77
2023/03/15 10:53:53;;;;;;;19.97;11.10;;;;;;;-143.84;78.25;45144.28;5133055;27;20531;-77
2023/03/15 10:56:25;;;;;;;16.23;10.50;;;;;;;-143.84;78.68;45134.75;5132343;27;20432;-77
2023/03/15 10:58:54;;;;;;;21.10;12.20;;;;;;;-143.84;78.84;45102.38;5133016;27;20544;-77
2023/03/15 11:01:28;;;;;;;20.93;11.77;;;;;;;-143.84;79.45;45111.91;5133530;27;20502;-77
2023/03/15 11:04:12;;;;;;;16.23;11.50;;;;;;;-143.84;79.43;45110.00;5133066;27;20461;-77
2023/03/15 11:06:42;;;;;;;16.47;11.10;;;;;;;-143.84;79.87;45111.91;5132667;27;20953;-77
2023/03/15 11:09:12;;;;;;;16.07;9.43;;;;;;;-143.84;78.88;45123.34;5131394;27;20450;-77
2023/03/15 11:12:06;;;;;;;19.57;9.37;;;;;;;-143.84;79.05;45140.47;5132360;27;20491;-77
2023/03/15 11:14:35;;;;;;;19.40;9.10;;;;;;;-143.84;78.67;45117.63;5132556;27;20469;-77
2023/03/15 11:17:04;;;;;;;16.77;10.47;;;;;;;-143.84;79.59;45081.44;5132627;27;20440;-77
2023/03/15 11:19:34;;;;;;;23.13;9.63;;;;;;;-143.84;78.23;45134.75;5132757;27;20456;-77
2023/03/15 11:22:02;;;;;;;17.40;10.70;;;;;;;-143.84;78.03;45108.09;5132351;27;21008;-77